createdAt,value
2023-05-19T00:00:50.051Z,101174.56
2023-05-19T00:05:57.218Z,101175.69
2023-05-19T00:10:59.169Z,101174.13
2023-05-19T00:16:01.256Z,101166.88
2023-05-19T00:21:03.034Z,101167.00
2023-05-19T00:26:04.779Z,101155.63
2023-05-19T00:31:06.944Z,101157.88
2023-05-19T00:36:09.042Z,101155.75
2023-05-19T00:41:11.051Z,101156.13
2023-05-19T00:46:12.801Z,101156.69
2023-05-19T00:51:16.818Z,101154.94
2023-05-19T00:56:19.205Z,101161.19
2023-05-19T01:01:21.823Z,101155.47
2023-05-19T01:06:25.569Z,101155.56
2023-05-19T01:11:27.693Z,101147.94
2023-05-19T01:16:32.685Z,101141.31
2023-05-19T01:21:48.885Z,101149.31
2023-05-19T01:27:00.164Z,101148.03
2023-05-19T01:32:04.875Z,101143.75
2023-05-19T01:37:08.558Z,101151.72
2023-05-19T01:42:11.093Z,101158.50
2023-05-19T01:47:13.191Z,101156.69
2023-05-19T01:52:14.861Z,101157.06
2023-05-19T01:57:24.810Z,101150.56
2023-05-19T02:03:00.836Z,101146.53
2023-05-19T02:08:25.788Z,101138.75
2023-05-19T02:13:29.420Z,101149.81
2023-05-19T02:18:33.376Z,101143.44
2023-05-19T02:23:35.051Z,101139.03
2023-05-19T02:28:36.803Z,101141.81
2023-05-19T02:33:38.479Z,101148.59
2023-05-19T02:38:40.549Z,101138.44
2023-05-19T02:43:42.307Z,101138.69
2023-05-19T02:48:44.096Z,101139.34
2023-05-19T02:53:45.947Z,101140.34
2023-05-19T02:58:47.736Z,101138.44
2023-05-19T03:03:49.605Z,101137.09
2023-05-19T03:08:51.421Z,101130.47
2023-05-19T03:13:53.133Z,101112.09
2023-05-19T03:18:56.005Z,101116.16
2023-05-19T03:23:57.755Z,101124.00
2023-05-19T03:28:59.998Z,101130.75
2023-05-19T03:34:02.120Z,101129.66
2023-05-19T03:39:04.110Z,101134.19
2023-05-19T03:44:06.181Z,101129.66
2023-05-19T03:49:08.017Z,101141.66
2023-05-19T03:54:28.100Z,101143.84
2023-05-19T03:59:29.876Z,101144.44
2023-05-19T04:04:31.692Z,101137.84
2023-05-19T04:09:35.355Z,101137.09
2023-05-19T04:14:37.086Z,101147.03
2023-05-19T04:19:38.795Z,101140.03
2023-05-19T04:24:40.524Z,101142.22
2023-05-19T04:29:42.639Z,101147.97
2023-05-19T04:34:46.051Z,101147.13
2023-05-19T04:39:54.785Z,101149.31
2023-05-19T04:44:59.461Z,101141.44
2023-05-19T04:50:04.876Z,101134.94
2023-05-19T04:55:06.953Z,101145.69
2023-05-19T05:00:12.794Z,101141.22
2023-05-19T05:05:27.521Z,101145.88
2023-05-19T05:10:29.311Z,101145.09
2023-05-19T05:15:31.565Z,101135.56
2023-05-19T05:20:36.228Z,101136.16
2023-05-19T05:25:38.528Z,101141.59
2023-05-19T05:30:41.474Z,101139.75
2023-05-19T05:35:43.294Z,101143.06
2023-05-19T05:40:47.423Z,101147.47
2023-05-19T05:45:49.396Z,101144.91
2023-05-19T05:50:52.348Z,101155.50
2023-05-19T05:55:58.556Z,101158.16
2023-05-19T06:01:10.601Z,101160.72
2023-05-19T06:06:12.391Z,101158.66
2023-05-19T06:11:15.168Z,101162.66
2023-05-19T06:16:17.067Z,101160.03
2023-05-19T06:21:21.907Z,101155.97
2023-05-19T06:26:23.725Z,101150.69
2023-05-19T06:31:26.599Z,101147.69
2023-05-19T06:36:31.463Z,101141.97
2023-05-19T06:41:34.749Z,101144.03
2023-05-19T06:46:36.916Z,101137.22
2023-05-19T06:51:39.411Z,101133.50
2023-05-19T06:56:41.140Z,101129.44
2023-05-19T07:01:42.894Z,101138.44
2023-05-19T07:06:45.054Z,101128.13
2023-05-19T07:11:47.008Z,101128.69
2023-05-19T07:16:48.914Z,101116.78
2023-05-19T07:21:52.001Z,101124.63
2023-05-19T07:26:53.822Z,101134.06
2023-05-19T07:31:57.969Z,101121.53
2023-05-19T07:37:00.252Z,101125.00
2023-05-19T07:42:02.193Z,101126.72
2023-05-19T07:47:03.997Z,101108.28
2023-05-19T07:52:06.233Z,101115.34
2023-05-19T07:57:07.910Z,101123.09
2023-05-19T08:02:09.626Z,101104.66
2023-05-19T08:07:11.372Z,101104.94
2023-05-19T08:12:13.062Z,101112.81
2023-05-19T08:17:14.761Z,101100.75
2023-05-19T08:22:16.611Z,101097.66
2023-05-19T08:27:18.332Z,101107.53
2023-05-19T08:32:20.020Z,101115.97
2023-05-19T08:37:21.727Z,101093.53
2023-05-19T08:42:23.490Z,101077.38
2023-05-19T08:47:25.423Z,101086.56
2023-05-19T08:58:11.757Z,101084.69
2023-05-19T09:03:18.532Z,101078.91
2023-05-19T09:08:24.677Z,101079.41
2023-05-19T09:13:26.709Z,101079.94
2023-05-19T09:18:28.403Z,101083.50
2023-05-19T09:23:32.631Z,101071.06
2023-05-19T09:28:36.836Z,101065.25
2023-05-19T09:33:42.871Z,101069.22
2023-05-19T09:38:46.258Z,101064.25
2023-05-19T09:43:54.946Z,101059.16
2023-05-19T09:49:00.354Z,101047.69
2023-05-19T09:54:02.116Z,101046.81
2023-05-19T09:59:04.005Z,101038.28
2023-05-19T10:04:06.176Z,101035.41
2023-05-19T10:09:08.282Z,101027.38
2023-05-19T10:14:10.193Z,101027.47
2023-05-19T10:19:13.098Z,101036.53
2023-05-19T10:24:14.812Z,101031.91
2023-05-19T10:29:20.173Z,101027.16
2023-05-19T10:35:01.937Z,101026.66
2023-05-19T10:40:13.766Z,101019.16
2023-05-19T10:45:19.547Z,101022.72
2023-05-19T10:50:21.128Z,101012.34
2023-05-19T10:55:46.475Z,101024.94
2023-05-19T11:00:48.114Z,101021.66
2023-05-19T11:05:52.257Z,101013.44
2023-05-19T11:10:53.938Z,101012.69
2023-05-19T11:15:56.296Z,101015.09
2023-05-19T11:21:02.328Z,101008.97
2023-05-19T11:26:04.289Z,101008.25
2023-05-19T11:31:08.154Z,101012.16
2023-05-19T11:36:10.148Z,101001.44
2023-05-19T11:41:11.822Z,101003.31
2023-05-19T11:46:14.350Z,101007.50
2023-05-19T11:51:16.452Z,101002.81
2023-05-19T11:56:18.188Z,101011.75
2023-05-19T12:01:25.732Z,101006.28
2023-05-19T12:06:28.227Z,101003.06
2023-05-19T12:11:31.771Z,101016.75
2023-05-19T12:16:35.378Z,100997.44
2023-05-19T12:21:37.330Z,100993.75
2023-05-19T12:26:39.113Z,100988.19
2023-05-19T12:31:41.409Z,101003.94
2023-05-19T12:36:43.140Z,100981.25
2023-05-19T12:41:45.659Z,100981.84
2023-05-19T12:46:47.683Z,100983.75
2023-05-19T12:51:55.591Z,100990.66
2023-05-19T12:56:57.837Z,100980.94
2023-05-19T13:01:59.671Z,100976.25
2023-05-19T13:07:01.772Z,100977.84
2023-05-19T13:12:04.857Z,100978.88
2023-05-19T13:17:06.605Z,100980.84
2023-05-19T13:22:08.377Z,100972.19
2023-05-19T13:27:10.077Z,100984.25
2023-05-19T13:32:11.751Z,100970.13
2023-05-19T13:37:13.574Z,100967.38
2023-05-19T13:42:16.419Z,100969.69
2023-05-19T13:47:18.470Z,100969.25
2023-05-19T13:52:21.251Z,100973.16
2023-05-19T13:57:26.468Z,100978.34
2023-05-19T14:02:28.466Z,100977.63
2023-05-19T14:07:30.645Z,100975.75
2023-05-19T14:12:41.365Z,100965.44
2023-05-19T14:17:53.850Z,100968.06
2023-05-19T14:22:55.796Z,100965.28
2023-05-19T14:27:57.453Z,100975.91
2023-05-19T14:32:59.232Z,100975.66
2023-05-19T14:38:01.054Z,100968.50
2023-05-19T14:43:02.849Z,100963.09
2023-05-19T14:48:05.766Z,100966.09
2023-05-19T14:53:07.585Z,100967.03
2023-05-19T14:58:23.515Z,100967.22
2023-05-19T15:03:29.091Z,100973.56
2023-05-19T15:08:30.866Z,100980.44
2023-05-19T15:13:32.626Z,100983.56
2023-05-19T15:18:34.502Z,100990.03
2023-05-19T15:23:36.365Z,100988.34
2023-05-19T15:28:38.028Z,100995.47
2023-05-19T15:33:39.707Z,101000.06
2023-05-19T15:38:41.413Z,100988.84
2023-05-19T15:43:46.192Z,100988.84
2023-05-19T15:48:48.069Z,101001.47
2023-05-19T15:53:49.736Z,101001.47
2023-05-19T15:58:51.468Z,101005.22
2023-05-19T16:03:53.374Z,101001.81
2023-05-19T16:08:55.448Z,101016.44
2023-05-19T16:13:57.246Z,101017.13
2023-05-19T16:18:58.974Z,101024.06
2023-05-19T16:24:00.736Z,101023.84
2023-05-19T16:29:02.476Z,101025.72
2023-05-19T16:34:04.250Z,101018.69
2023-05-19T16:39:05.952Z,101036.50
2023-05-19T16:44:07.718Z,101036.47
2023-05-19T16:49:11.206Z,101044.44
2023-05-19T16:54:12.935Z,101040.72
2023-05-19T16:59:14.676Z,101041.88
2023-05-19T17:04:16.384Z,101038.06
2023-05-19T17:09:18.183Z,101025.66
2023-05-19T17:14:20.024Z,101026.78
2023-05-19T17:19:21.878Z,101020.50
2023-05-19T17:24:23.643Z,101031.16
2023-05-19T17:29:27.742Z,101034.66
2023-05-19T17:34:30.090Z,101038.84
2023-05-19T17:39:31.764Z,101036.47
2023-05-19T17:44:33.739Z,101044.94
2023-05-19T17:49:35.727Z,101042.69
2023-05-19T17:54:37.715Z,101043.19
2023-05-19T17:59:39.608Z,101040.78
2023-05-19T18:04:41.911Z,101031.25
2023-05-19T18:09:48.039Z,101028.00
2023-05-19T18:14:50.181Z,101028.47
2023-05-19T18:19:51.927Z,101027.63
2023-05-19T18:24:53.731Z,101034.75
2023-05-19T18:29:55.559Z,101041.66
2023-05-19T18:34:57.247Z,101035.16
2023-05-19T18:40:00.063Z,101040.50
2023-05-19T18:45:01.766Z,101030.44
2023-05-19T18:50:04.330Z,101029.91
2023-05-19T18:55:07.178Z,101028.34
2023-05-19T19:00:09.338Z,101043.25
2023-05-19T19:05:11.163Z,101053.56
2023-05-19T19:10:12.874Z,101047.91
2023-05-19T19:15:14.570Z,101049.66
2023-05-19T19:20:16.359Z,101054.38
2023-05-19T19:25:18.134Z,101053.69
2023-05-19T19:30:19.918Z,101055.53
2023-05-19T19:35:21.877Z,101054.00
2023-05-19T19:40:24.901Z,101054.63
2023-05-19T19:45:26.565Z,101052.22
2023-05-19T19:50:28.523Z,101051.81
2023-05-19T19:55:30.908Z,101052.28
2023-05-19T20:00:32.697Z,101059.16
2023-05-19T20:05:34.620Z,101052.31
2023-05-19T20:10:36.392Z,101055.19
2023-05-19T20:15:38.983Z,101051.06
2023-05-19T20:20:41.352Z,101059.66
2023-05-19T20:25:54.743Z,101056.25
2023-05-19T20:31:05.129Z,101056.50
2023-05-19T20:36:07.633Z,101061.06
2023-05-19T20:41:09.373Z,101054.81
2023-05-19T20:46:11.227Z,101063.66
2023-05-19T20:51:13.427Z,101063.78
2023-05-19T20:56:15.167Z,101063.94
2023-05-19T21:01:17.264Z,101053.41
2023-05-19T21:06:19.039Z,101049.00
2023-05-19T21:11:21.159Z,101054.56
2023-05-19T21:16:23.246Z,101051.31
2023-05-19T21:21:25.273Z,101055.16
2023-05-19T21:26:27.176Z,101050.75
2023-05-19T21:31:28.971Z,101050.91
2023-05-19T21:36:31.811Z,101067.59
2023-05-19T21:41:33.525Z,101058.78
2023-05-19T21:46:35.281Z,101056.06
2023-05-19T21:51:37.076Z,101052.06
2023-05-19T21:56:38.785Z,101064.91
2023-05-19T22:01:40.806Z,101055.22
2023-05-19T22:06:42.809Z,101050.94
2023-05-19T22:11:44.440Z,101051.25
2023-05-19T22:16:47.468Z,101056.66
2023-05-19T22:21:50.385Z,101052.41
2023-05-19T22:26:55.472Z,101047.13
2023-05-19T22:31:57.093Z,101051.69
2023-05-19T22:36:58.752Z,101047.28
2023-05-19T22:42:00.482Z,101053.00
2023-05-19T22:47:02.204Z,101044.16
2023-05-19T22:52:04.065Z,101044.31
2023-05-19T22:57:06.473Z,101031.78
2023-05-19T23:02:08.334Z,101029.91
2023-05-19T23:07:10.085Z,101027.22
2023-05-19T23:12:11.788Z,101019.94
2023-05-19T23:17:13.657Z,101034.34
2023-05-19T23:22:15.747Z,101032.63
2023-05-19T23:27:17.434Z,101043.75
2023-05-19T23:32:19.147Z,101037.63
2023-05-19T23:37:21.226Z,101038.78
2023-05-19T23:42:22.912Z,101037.50
2023-05-19T23:47:24.644Z,101047.22
2023-05-19T23:52:26.393Z,101038.69
2023-05-19T23:57:28.043Z,101047.97
